sensor_id;sensor_type;location;lat;lon;timestamp;pressure;altitude;pressure_sealevel;temperature;humidity
54872;BME280;43914;57.680;11.982;2023-05-03T00:01:32;101291.31;;;5.35;100.00
54872;BME280;43914;57.680;11.982;2023-05-03T00:03:58;101296.36;;;5.34;100.00
54872;BME280;43914;57.680;11.982;2023-05-03T00:06:23;101298.99;;;5.32;100.00
54872;BME280;43914;57.680;11.982;2023-05-03T00:08:49;101300.17;;;5.31;100.00
54872;BME280;43914;57.680;11.982;2023-05-03T00:11:15;101301.12;;;5.31;100.00
54872;BME280;43914;57.680;11.982;2023-05-03T00:13:41;101304.73;;;5.29;100.00
54872;BME280;43914;57.680;11.982;2023-05-03T00:16:07;101303.91;;;5.29;100.00
54872;BME280;43914;57.680;11.982;2023-05-03T00:18:32;101308.63;;;5.30;100.00
54872;BME280;43914;57.680;11.982;2023-05-03T00:20:58;101313.88;;;5.29;100.00
54872;BME280;43914;57.680;11.982;2023-05-03T00:23:24;101322.04;;;5.29;100.00
54872;BME280;43914;57.680;11.982;2023-05-03T00:25:54;101320.95;;;5.29;100.00
54872;BME280;43914;57.680;11.982;2023-05-03T00:28:20;101321.05;;;5.28;100.00
54872;BME280;43914;57.680;11.982;2023-05-03T00:30:45;101319.61;;;5.24;100.00
54872;BME280;43914;57.680;11.982;2023-05-03T00:33:11;101325.28;;;5.26;100.00
54872;BME280;43914;57.680;11.982;2023-05-03T00:35:36;101328.50;;;5.20;100.00
54872;BME280;43914;57.680;11.982;2023-05-03T00:38:02;101330.86;;;5.15;100.00
54872;BME280;43914;57.680;11.982;2023-05-03T00:40:27;101325.34;;;5.15;100.00
54872;BME280;43914;57.680;11.982;2023-05-03T00:42:52;101320.60;;;5.17;100.00
54872;BME280;43914;57.680;11.982;2023-05-03T00:45:18;101323.02;;;5.22;100.00
54872;BME280;43914;57.680;11.982;2023-05-03T00:47:43;101322.92;;;5.25;100.00
54872;BME280;43914;57.680;11.982;2023-05-03T00:50:09;101326.75;;;5.26;100.00
54872;BME280;43914;57.680;11.982;2023-05-03T00:52:37;101319.66;;;5.25;100.00
54872;BME280;43914;57.680;11.982;2023-05-03T00:55:04;101320.48;;;5.31;100.00
54872;BME280;43914;57.680;11.982;2023-05-03T00:57:29;101328.34;;;5.36;100.00
54872;BME280;43914;57.680;11.982;2023-05-03T00:59:56;101325.02;;;5.40;100.00
54872;BME280;43914;57.680;11.982;2023-05-03T01:02:22;101320.48;;;5.43;100.00
54872;BME280;43914;57.680;11.982;2023-05-03T01:04:50;101319.64;;;5.44;100.00
54872;BME280;43914;57.680;11.982;2023-05-03T01:07:44;101319.72;;;5.43;100.00
54872;BME280;43914;57.680;11.982;2023-05-03T01:10:21;101324.17;;;5.41;100.00
54872;BME280;43914;57.680;11.982;2023-05-03T01:16:20;101334.27;;;5.37;100.00
54872;BME280;43914;57.680;11.982;2023-05-03T01:18:54;101334.98;;;5.39;100.00
54872;BME280;43914;57.680;11.982;2023-05-03T01:21:22;101338.89;;;5.43;100.00
54872;BME280;43914;57.680;11.982;2023-05-03T01:24:17;101341.14;;;5.46;100.00
54872;BME280;43914;57.680;11.982;2023-05-03T01:26:46;101334.77;;;5.50;100.00
54872;BME280;43914;57.680;11.982;2023-05-03T01:29:13;101338.92;;;5.51;100.00
54872;BME280;43914;57.680;11.982;2023-05-03T01:37:18;101343.55;;;5.61;100.00
54872;BME280;43914;57.680;11.982;2023-05-03T01:40:00;101342.61;;;5.64;100.00
54872;BME280;43914;57.680;11.982;2023-05-03T01:42:27;101345.89;;;5.65;100.00
54872;BME280;43914;57.680;11.982;2023-05-03T01:44:54;101343.61;;;5.67;100.00
54872;BME280;43914;57.680;11.982;2023-05-03T01:47:20;101347.13;;;5.67;100.00
54872;BME280;43914;57.680;11.982;2023-05-03T01:49:47;101345.24;;;5.68;100.00
54872;BME280;43914;57.680;11.982;2023-05-03T01:52:13;101348.90;;;5.69;100.00
54872;BME280;43914;57.680;11.982;2023-05-03T01:54:39;101348.80;;;5.68;100.00
54872;BME280;43914;57.680;11.982;2023-05-03T01:57:05;101346.81;;;5.69;100.00
54872;BME280;43914;57.680;11.982;2023-05-03T01:59:31;101347.68;;;5.67;100.00
54872;BME280;43914;57.680;11.982;2023-05-03T02:01:57;101352.17;;;5.66;100.00
54872;BME280;43914;57.680;11.982;2023-05-03T02:04:22;101354.42;;;5.65;100.00
54872;BME280;43914;57.680;11.982;2023-05-03T02:06:48;101356.16;;;5.63;100.00
54872;BME280;43914;57.680;11.982;2023-05-03T02:09:14;101364.47;;;5.64;100.00
54872;BME280;43914;57.680;11.982;2023-05-03T02:11:40;101367.13;;;5.62;100.00
54872;BME280;43914;57.680;11.982;2023-05-03T02:14:07;101365.36;;;5.62;100.00
54872;BME280;43914;57.680;11.982;2023-05-03T02:16:33;101363.44;;;5.61;100.00
54872;BME280;43914;57.680;11.982;2023-05-03T02:18:59;101366.59;;;5.62;100.00
54872;BME280;43914;57.680;11.982;2023-05-03T02:21:25;101366.54;;;5.63;100.00
54872;BME280;43914;57.680;11.982;2023-05-03T02:23:51;101374.91;;;5.63;100.00
54872;BME280;43914;57.680;11.982;2023-05-03T02:26:19;101378.52;;;5.62;100.00
54872;BME280;43914;57.680;11.982;2023-05-03T02:28:45;101381.09;;;5.59;100.00
54872;BME280;43914;57.680;11.982;2023-05-03T02:31:11;101380.55;;;5.53;100.00
54872;BME280;43914;57.680;11.982;2023-05-03T02:33:38;101383.06;;;5.49;100.00
54872;BME280;43914;57.680;11.982;2023-05-03T02:36:04;101384.44;;;5.49;100.00
54872;BME280;43914;57.680;11.982;2023-05-03T02:38:30;101385.98;;;5.50;100.00
54872;BME280;43914;57.680;11.982;2023-05-03T02:40:55;101387.52;;;5.48;100.00
54872;BME280;43914;57.680;11.982;2023-05-03T02:43:22;101387.54;;;5.46;100.00
54872;BME280;43914;57.680;11.982;2023-05-03T02:45:47;101389.98;;;5.44;100.00
54872;BME280;43914;57.680;11.982;2023-05-03T02:48:14;101391.73;;;5.43;100.00
54872;BME280;43914;57.680;11.982;2023-05-03T02:50:41;101393.69;;;5.41;100.00
54872;BME280;43914;57.680;11.982;2023-05-03T02:53:06;101394.75;;;5.39;100.00
54872;BME280;43914;57.680;11.982;2023-05-03T02:55:33;101396.94;;;5.38;100.00
54872;BME280;43914;57.680;11.982;2023-05-03T02:57:59;101406.27;;;5.39;100.00
54872;BME280;43914;57.680;11.982;2023-05-03T03:00:25;101404.31;;;5.37;100.00
54872;BME280;43914;57.680;11.982;2023-05-03T03:02:51;101411.13;;;5.37;100.00
54872;BME280;43914;57.680;11.982;2023-05-03T03:05:17;101409.58;;;5.34;100.00
54872;BME280;43914;57.680;11.982;2023-05-03T03:07:43;101409.41;;;5.34;100.00
54872;BME280;43914;57.680;11.982;2023-05-03T03:10:09;101413.69;;;5.33;100.00
54872;BME280;43914;57.680;11.982;2023-05-03T03:12:35;101414.49;;;5.35;100.00
54872;BME280;43914;57.680;11.982;2023-05-03T03:15:01;101416.88;;;5.36;100.00
54872;BME280;43914;57.680;11.982;2023-05-03T03:17:29;101416.65;;;5.36;100.00
54872;BME280;43914;57.680;11.982;2023-05-03T03:19:56;101414.15;;;5.36;100.00
54872;BME280;43914;57.680;11.982;2023-05-03T03:22:23;101415.42;;;5.36;100.00
54872;BME280;43914;57.680;11.982;2023-05-03T03:24:50;101415.61;;;5.36;100.00
54872;BME280;43914;57.680;11.982;2023-05-03T03:27:16;101417.33;;;5.37;100.00
54872;BME280;43914;57.680;11.982;2023-05-03T03:29:42;101418.59;;;5.37;100.00
54872;BME280;43914;57.680;11.982;2023-05-03T03:32:07;101421.86;;;5.38;100.00
54872;BME280;43914;57.680;11.982;2023-05-03T03:34:33;101421.67;;;5.38;100.00
54872;BME280;43914;57.680;11.982;2023-05-03T03:36:59;101424.48;;;5.38;100.00
54872;BME280;43914;57.680;11.982;2023-05-03T03:39:24;101429.45;;;5.36;100.00
54872;BME280;43914;57.680;11.982;2023-05-03T03:41:50;101435.70;;;5.36;100.00
54872;BME280;43914;57.680;11.982;2023-05-03T03:44:17;101434.23;;;5.34;100.00
54872;BME280;43914;57.680;11.982;2023-05-03T03:46:42;101436.39;;;5.34;100.00
54872;BME280;43914;57.680;11.982;2023-05-03T03:49:08;101439.34;;;5.33;100.00
54872;BME280;43914;57.680;11.982;2023-05-03T03:51:34;101442.39;;;5.30;100.00
54872;BME280;43914;57.680;11.982;2023-05-03T03:54:00;101442.48;;;5.27;100.00
54872;BME280;43914;57.680;11.982;2023-05-03T03:56:25;101441.41;;;5.27;100.00
54872;BME280;43914;57.680;11.982;2023-05-03T03:58:52;101442.34;;;5.23;100.00
54872;BME280;43914;57.680;11.982;2023-05-03T04:01:17;101442.25;;;5.22;100.00
54872;BME280;43914;57.680;11.982;2023-05-03T04:03:46;101440.11;;;5.26;100.00
54872;BME280;43914;57.680;11.982;2023-05-03T04:06:12;101444.78;;;5.29;100.00
54872;BME280;43914;57.680;11.982;2023-05-03T04:08:37;101447.16;;;5.33;100.00
54872;BME280;43914;57.680;11.982;2023-05-03T04:11:09;101437.63;;;5.28;100.00
54872;BME280;43914;57.680;11.982;2023-05-03T04:13:35;101454.55;;;5.34;100.00
54872;BME280;43914;57.680;11.982;2023-05-03T04:16:01;101453.46;;;5.26;100.00
54872;BME280;43914;57.680;11.982;2023-05-03T04:18:27;101448.56;;;5.18;100.00
54872;BME280;43914;57.680;11.982;2023-05-03T04:20:54;101454.81;;;5.22;100.00
54872;BME280;43914;57.680;11.982;2023-05-03T04:23:19;101455.61;;;5.23;100.00
54872;BME280;43914;57.680;11.982;2023-05-03T04:25:46;101454.50;;;5.26;100.00
54872;BME280;43914;57.680;11.982;2023-05-03T04:28:13;101456.01;;;5.29;100.00
54872;BME280;43914;57.680;11.982;2023-05-03T04:30:40;101457.84;;;5.30;100.00
54872;BME280;43914;57.680;11.982;2023-05-03T04:33:12;101458.55;;;5.32;100.00
54872;BME280;43914;57.680;11.982;2023-05-03T04:35:39;101458.60;;;5.36;100.00
54872;BME280;43914;57.680;11.982;2023-05-03T04:38:04;101459.48;;;5.38;100.00
54872;BME280;43914;57.680;11.982;2023-05-03T04:40:30;101463.65;;;5.42;100.00
54872;BME280;43914;57.680;11.982;2023-05-03T04:42:56;101467.88;;;5.46;100.00
54872;BME280;43914;57.680;11.982;2023-05-03T04:45:22;101471.08;;;5.50;100.00
54872;BME280;43914;57.680;11.982;2023-05-03T04:47:48;101475.91;;;5.52;100.00
54872;BME280;43914;57.680;11.982;2023-05-03T04:50:14;101474.03;;;5.58;100.00
54872;BME280;43914;57.680;11.982;2023-05-03T04:52:40;101481.46;;;5.62;100.00
54872;BME280;43914;57.680;11.982;2023-05-03T04:55:06;101481.53;;;5.67;100.00
54872;BME280;43914;57.680;11.982;2023-05-03T04:57:33;101486.25;;;5.73;100.00
54872;BME280;43914;57.680;11.982;2023-05-03T04:59:59;101487.45;;;5.77;100.00
54872;BME280;43914;57.680;11.982;2023-05-03T05:02:25;101493.05;;;5.80;100.00
54872;BME280;43914;57.680;11.982;2023-05-03T05:04:52;101492.05;;;5.85;100.00
54872;BME280;43914;57.680;11.982;2023-05-03T05:07:17;101497.08;;;5.93;100.00
54872;BME280;43914;57.680;11.982;2023-05-03T05:09:43;101499.50;;;6.00;100.00
54872;BME280;43914;57.680;11.982;2023-05-03T05:12:09;101495.45;;;6.04;100.00
54872;BME280;43914;57.680;11.982;2023-05-03T05:14:37;101503.67;;;6.12;100.00
54872;BME280;43914;57.680;11.982;2023-05-03T05:17:02;101505.09;;;6.18;100.00
54872;BME280;43914;57.680;11.982;2023-05-03T05:19:28;101503.01;;;6.24;100.00
54872;BME280;43914;57.680;11.982;2023-05-03T05:21:54;101508.99;;;6.34;100.00
54872;BME280;43914;57.680;11.982;2023-05-03T05:24:22;101511.17;;;6.42;100.00
54872;BME280;43914;57.680;11.982;2023-05-03T05:26:47;101511.95;;;6.47;100.00
54872;BME280;43914;57.680;11.982;2023-05-03T05:29:13;101513.45;;;6.54;100.00
54872;BME280;43914;57.680;11.982;2023-05-03T05:31:39;101516.98;;;6.62;100.00
54872;BME280;43914;57.680;11.982;2023-05-03T05:34:05;101517.25;;;6.67;100.00
54872;BME280;43914;57.680;11.982;2023-05-03T05:36:30;101520.95;;;6.74;100.00
54872;BME280;43914;57.680;11.982;2023-05-03T05:38:56;101523.28;;;6.78;100.00
54872;BME280;43914;57.680;11.982;2023-05-03T05:41:22;101526.20;;;6.81;100.00
54872;BME280;43914;57.680;11.982;2023-05-03T05:43:48;101525.05;;;6.86;100.00
54872;BME280;43914;57.680;11.982;2023-05-03T05:46:13;101528.21;;;6.90;100.00
54872;BME280;43914;57.680;11.982;2023-05-03T05:48:40;101526.42;;;6.94;100.00
54872;BME280;43914;57.680;11.982;2023-05-03T05:51:05;101530.05;;;6.97;100.00
54872;BME280;43914;57.680;11.982;2023-05-03T05:53:31;101535.31;;;7.00;100.00
54872;BME280;43914;57.680;11.982;2023-05-03T05:55:57;101538.62;;;7.03;100.00
54872;BME280;43914;57.680;11.982;2023-05-03T05:58:23;101544.44;;;7.07;100.00
54872;BME280;43914;57.680;11.982;2023-05-03T06:00:48;101546.41;;;7.12;100.00
54872;BME280;43914;57.680;11.982;2023-05-03T06:03:15;101547.16;;;7.17;99.90
54872;BME280;43914;57.680;11.982;2023-05-03T06:05:41;101558.16;;;7.23;98.91
54872;BME280;43914;57.680;11.982;2023-05-03T06:08:07;101559.66;;;7.30;98.05
54872;BME280;43914;57.680;11.982;2023-05-03T06:10:33;101559.77;;;7.31;96.76
54872;BME280;43914;57.680;11.982;2023-05-03T06:12:59;101565.83;;;7.31;95.40
54872;BME280;43914;57.680;11.982;2023-05-03T06:15:25;101567.20;;;7.35;95.40
54872;BME280;43914;57.680;11.982;2023-05-03T06:17:51;101566.74;;;7.42;95.22
54872;BME280;43914;57.680;11.982;2023-05-03T06:20:17;101567.48;;;7.42;94.42
54872;BME280;43914;57.680;11.982;2023-05-03T06:22:43;101574.28;;;7.46;93.78
54872;BME280;43914;57.680;11.982;2023-05-03T06:25:09;101577.20;;;7.51;92.86
54872;BME280;43914;57.680;11.982;2023-05-03T06:27:35;101576.13;;;7.55;92.04
54872;BME280;43914;57.680;11.982;2023-05-03T06:30:07;101578.17;;;7.60;91.22
54872;BME280;43914;57.680;11.982;2023-05-03T06:32:32;101575.23;;;7.66;90.23
54872;BME280;43914;57.680;11.982;2023-05-03T06:34:58;101575.61;;;7.73;90.13
54872;BME280;43914;57.680;11.982;2023-05-03T06:37:25;101572.93;;;7.83;89.87
54872;BME280;43914;57.680;11.982;2023-05-03T06:39:51;101573.75;;;7.92;89.32
54872;BME280;43914;57.680;11.982;2023-05-03T06:42:16;101574.95;;;7.96;88.45
54872;BME280;43914;57.680;11.982;2023-05-03T06:44:42;101579.88;;;7.99;87.46
54872;BME280;43914;57.680;11.982;2023-05-03T06:47:07;101574.19;;;7.99;86.70
54872;BME280;43914;57.680;11.982;2023-05-03T06:49:33;101575.86;;;8.07;85.89
54872;BME280;43914;57.680;11.982;2023-05-03T06:51:59;101577.38;;;8.12;84.77
54872;BME280;43914;57.680;11.982;2023-05-03T06:54:25;101584.59;;;8.20;84.13
54872;BME280;43914;57.680;11.982;2023-05-03T06:56:51;101585.80;;;8.25;82.54
54872;BME280;43914;57.680;11.982;2023-05-03T06:59:18;101584.77;;;8.36;81.16
54872;BME280;43914;57.680;11.982;2023-05-03T07:01:43;101589.89;;;8.46;80.97
54872;BME280;43914;57.680;11.982;2023-05-03T07:04:11;101588.99;;;8.55;81.22
54872;BME280;43914;57.680;11.982;2023-05-03T07:06:37;101591.90;;;8.65;80.95
54872;BME280;43914;57.680;11.982;2023-05-03T07:09:04;101593.35;;;8.73;80.73
54872;BME280;43914;57.680;11.982;2023-05-03T07:11:34;101593.57;;;8.82;80.08
54872;BME280;43914;57.680;11.982;2023-05-03T07:14:02;101595.84;;;8.88;79.27
54872;BME280;43914;57.680;11.982;2023-05-03T07:16:27;101594.13;;;8.92;78.24
54872;BME280;43914;57.680;11.982;2023-05-03T07:18:53;101594.20;;;8.97;76.91
54872;BME280;43914;57.680;11.982;2023-05-03T07:21:19;101594.75;;;9.02;76.00
54872;BME280;43914;57.680;11.982;2023-05-03T07:23:45;101596.90;;;9.10;74.93
54872;BME280;43914;57.680;11.982;2023-05-03T07:26:11;101597.64;;;9.15;73.65
54872;BME280;43914;57.680;11.982;2023-05-03T07:28:37;101603.50;;;9.17;73.33
54872;BME280;43914;57.680;11.982;2023-05-03T07:31:02;101600.59;;;9.23;72.10
54872;BME280;43914;57.680;11.982;2023-05-03T07:33:29;101602.02;;;9.30;70.64
54872;BME280;43914;57.680;11.982;2023-05-03T07:35:56;101599.16;;;9.35;68.95
54872;BME280;43914;57.680;11.982;2023-05-03T07:38:23;101600.86;;;9.40;67.74
54872;BME280;43914;57.680;11.982;2023-05-03T07:40:49;101602.77;;;9.46;66.89
54872;BME280;43914;57.680;11.982;2023-05-03T07:43:15;101599.95;;;9.50;66.55
54872;BME280;43914;57.680;11.982;2023-05-03T07:45:43;101598.91;;;9.54;65.16
54872;BME280;43914;57.680;11.982;2023-05-03T07:48:09;101600.58;;;9.61;65.43
54872;BME280;43914;57.680;11.982;2023-05-03T07:50:37;101601.33;;;9.67;65.91
54872;BME280;43914;57.680;11.982;2023-05-03T07:53:05;101604.37;;;9.71;64.86
54872;BME280;43914;57.680;11.982;2023-05-03T07:55:31;101604.92;;;9.74;64.80
54872;BME280;43914;57.680;11.982;2023-05-03T07:57:57;101606.17;;;9.76;63.87
54872;BME280;43914;57.680;11.982;2023-05-03T08:00:25;101608.41;;;9.75;62.42
54872;BME280;43914;57.680;11.982;2023-05-03T08:02:51;101607.98;;;9.74;62.38
54872;BME280;43914;57.680;11.982;2023-05-03T08:05:16;101610.16;;;9.75;61.27
54872;BME280;43914;57.680;11.982;2023-05-03T08:07:43;101610.58;;;9.77;61.00
54872;BME280;43914;57.680;11.982;2023-05-03T08:10:09;101612.88;;;9.80;59.75
54872;BME280;43914;57.680;11.982;2023-05-03T08:12:35;101615.40;;;9.84;59.20
54872;BME280;43914;57.680;11.982;2023-05-03T08:15:01;101615.48;;;9.87;58.79
54872;BME280;43914;57.680;11.982;2023-05-03T08:17:31;101618.88;;;9.90;57.27
54872;BME280;43914;57.680;11.982;2023-05-03T08:19:57;101619.81;;;9.88;56.13
54872;BME280;43914;57.680;11.982;2023-05-03T08:22:23;101625.48;;;9.90;55.22
54872;BME280;43914;57.680;11.982;2023-05-03T08:24:51;101618.40;;;9.88;55.16
54872;BME280;43914;57.680;11.982;2023-05-03T08:27:18;101628.70;;;9.92;54.21
54872;BME280;43914;57.680;11.982;2023-05-03T08:29:44;101626.29;;;9.94;54.10
54872;BME280;43914;57.680;11.982;2023-05-03T08:32:10;101627.61;;;10.01;54.64
54872;BME280;43914;57.680;11.982;2023-05-03T08:34:35;101625.00;;;10.09;54.71
54872;BME280;43914;57.680;11.982;2023-05-03T08:37:01;101631.55;;;10.13;54.85
54872;BME280;43914;57.680;11.982;2023-05-03T08:39:29;101621.96;;;10.16;54.51
54872;BME280;43914;57.680;11.982;2023-05-03T08:41:56;101625.23;;;10.19;54.01
54872;BME280;43914;57.680;11.982;2023-05-03T08:44:23;101623.99;;;10.19;53.66
54872;BME280;43914;57.680;11.982;2023-05-03T08:46:52;101628.37;;;10.22;54.45
54872;BME280;43914;57.680;11.982;2023-05-03T08:49:18;101627.70;;;10.26;53.47
54872;BME280;43914;57.680;11.982;2023-05-03T08:51:44;101630.29;;;10.31;53.06
54872;BME280;43914;57.680;11.982;2023-05-03T08:54:16;101634.41;;;10.34;52.51
54872;BME280;43914;57.680;11.982;2023-05-03T08:56:45;101640.96;;;10.38;52.70
54872;BME280;43914;57.680;11.982;2023-05-03T08:59:12;101639.81;;;10.37;52.22
54872;BME280;43914;57.680;11.982;2023-05-03T09:01:39;101641.70;;;10.38;52.08
54872;BME280;43914;57.680;11.982;2023-05-03T09:04:05;101645.42;;;10.42;51.86
54872;BME280;43914;57.680;11.982;2023-05-03T09:06:32;101648.01;;;10.42;51.43
54872;BME280;43914;57.680;11.982;2023-05-03T09:08:58;101649.85;;;10.43;51.00
54872;BME280;43914;57.680;11.982;2023-05-03T09:11:29;101648.33;;;10.46;51.02
54872;BME280;43914;57.680;11.982;2023-05-03T09:14:14;101658.97;;;10.50;50.42
54872;BME280;43914;57.680;11.982;2023-05-03T09:16:42;101657.21;;;10.49;50.53
54872;BME280;43914;57.680;11.982;2023-05-03T09:19:09;101656.05;;;10.51;50.35
54872;BME280;43914;57.680;11.982;2023-05-03T09:21:41;101658.38;;;10.52;50.78
54872;BME280;43914;57.680;11.982;2023-05-03T09:24:15;101658.34;;;10.54;50.60
54872;BME280;43914;57.680;11.982;2023-05-03T09:26:42;101657.38;;;10.55;51.04
54872;BME280;43914;57.680;11.982;2023-05-03T09:29:08;101665.08;;;10.59;51.16
54872;BME280;43914;57.680;11.982;2023-05-03T09:31:35;101664.42;;;10.56;50.97
54872;BME280;43914;57.680;11.982;2023-05-03T09:34:01;101648.69;;;10.45;51.12
54872;BME280;43914;57.680;11.982;2023-05-03T09:36:44;101656.75;;;10.52;51.58
54872;BME280;43914;57.680;11.982;2023-05-03T09:39:17;101660.52;;;10.52;51.33
54872;BME280;43914;57.680;11.982;2023-05-03T09:41:44;101661.98;;;10.56;51.38
54872;BME280;43914;57.680;11.982;2023-05-03T09:44:11;101669.11;;;10.58;49.85
54872;BME280;43914;57.680;11.982;2023-05-03T09:46:37;101665.08;;;10.59;50.62
54872;BME280;43914;57.680;11.982;2023-05-03T09:49:03;101667.05;;;10.64;50.61
54872;BME280;43914;57.680;11.982;2023-05-03T09:51:30;101670.89;;;10.68;50.13
54872;BME280;43914;57.680;11.982;2023-05-03T09:53:58;101668.05;;;10.70;50.18
54872;BME280;43914;57.680;11.982;2023-05-03T09:56:24;101674.10;;;10.80;50.54
54872;BME280;43914;57.680;11.982;2023-05-03T09:58:53;101672.14;;;10.89;50.37
54872;BME280;43914;57.680;11.982;2023-05-03T10:01:19;101676.73;;;10.96;50.03
54872;BME280;43914;57.680;11.982;2023-05-03T10:03:49;101676.45;;;10.93;49.56
54872;BME280;43914;57.680;11.982;2023-05-03T10:06:24;101679.27;;;10.94;49.43
54872;BME280;43914;57.680;11.982;2023-05-03T10:08:56;101682.97;;;10.95;48.51
54872;BME280;43914;57.680;11.982;2023-05-03T10:11:26;101684.31;;;10.91;48.56
54872;BME280;43914;57.680;11.982;2023-05-03T10:13:52;101680.75;;;10.89;48.75
54872;BME280;43914;57.680;11.982;2023-05-03T10:16:24;101685.61;;;10.87;47.88
54872;BME280;43914;57.680;11.982;2023-05-03T10:18:58;101678.45;;;10.83;47.95
54872;BME280;43914;57.680;11.982;2023-05-03T10:21:37;101686.59;;;10.84;48.55
54872;BME280;43914;57.680;11.982;2023-05-03T10:24:13;101682.36;;;10.85;48.36
54872;BME280;43914;57.680;11.982;2023-05-03T10:26:41;101688.44;;;10.87;47.66
54872;BME280;43914;57.680;11.982;2023-05-03T10:32:30;101686.50;;;10.99;48.09
54872;BME280;43914;57.680;11.982;2023-05-03T10:35:28;101693.41;;;11.06;47.60
54872;BME280;43914;57.680;11.982;2023-05-03T10:37:57;101698.30;;;11.13;46.72
54872;BME280;43914;57.680;11.982;2023-05-03T10:40:23;101690.95;;;11.11;46.03
54872;BME280;43914;57.680;11.982;2023-05-03T10:42:55;101695.18;;;11.12;45.63
54872;BME280;43914;57.680;11.982;2023-05-03T10:45:25;101693.63;;;11.10;45.21
54872;BME280;43914;57.680;11.982;2023-05-03T10:53:57;101691.16;;;11.09;44.00
54872;BME280;43914;57.680;11.982;2023-05-03T10:56:23;101693.13;;;11.11;44.26
54872;BME280;43914;57.680;11.982;2023-05-03T10:58:49;101694.52;;;11.15;44.10
54872;BME280;43914;57.680;11.982;2023-05-03T11:01:17;101701.84;;;11.15;43.28
54872;BME280;43914;57.680;11.982;2023-05-03T11:06:35;101696.56;;;11.20;44.19
54872;BME280;43914;57.680;11.982;2023-05-03T11:09:06;101695.78;;;11.31;44.01
54872;BME280;43914;57.680;11.982;2023-05-03T11:11:36;101692.16;;;11.45;44.43
54872;BME280;43914;57.680;11.982;2023-05-03T11:14:04;101702.52;;;11.64;43.53
54872;BME280;43914;57.680;11.982;2023-05-03T11:16:29;101697.60;;;11.73;42.85
54872;BME280;43914;57.680;11.982;2023-05-03T11:18:56;101703.09;;;11.83;43.04
54872;BME280;43914;57.680;11.982;2023-05-03T11:21:22;101705.85;;;11.91;42.37
54872;BME280;43914;57.680;11.982;2023-05-03T11:23:48;101709.02;;;11.92;42.03
54872;BME280;43914;57.680;11.982;2023-05-03T11:26:13;101706.95;;;11.93;41.84
54872;BME280;43914;57.680;11.982;2023-05-03T11:28:40;101709.83;;;11.91;41.29
54872;BME280;43914;57.680;11.982;2023-05-03T11:31:13;101710.29;;;11.92;41.40
54872;BME280;43914;57.680;11.982;2023-05-03T11:33:40;101712.92;;;11.92;41.30
54872;BME280;43914;57.680;11.982;2023-05-03T11:36:07;101716.45;;;11.90;40.64
54872;BME280;43914;57.680;11.982;2023-05-03T11:38:36;101710.73;;;11.86;40.93
54872;BME280;43914;57.680;11.982;2023-05-03T11:41:20;101705.58;;;11.83;40.41
54872;BME280;43914;57.680;11.982;2023-05-03T11:43:47;101710.93;;;11.82;40.64
54872;BME280;43914;57.680;11.982;2023-05-03T11:46:18;101701.44;;;11.84;41.28
54872;BME280;43914;57.680;11.982;2023-05-03T11:48:46;101695.41;;;11.96;41.88
54872;BME280;43914;57.680;11.982;2023-05-03T11:51:12;101694.50;;;12.13;41.84
54872;BME280;43914;57.680;11.982;2023-05-03T11:53:42;101694.66;;;12.25;41.44
54872;BME280;43914;57.680;11.982;2023-05-03T11:56:12;101697.62;;;12.37;41.39
54872;BME280;43914;57.680;11.982;2023-05-03T11:58:57;101696.64;;;12.60;41.43
54872;BME280;43914;57.680;11.982;2023-05-03T12:01:26;101697.14;;;12.78;40.60
54872;BME280;43914;57.680;11.982;2023-05-03T12:04:02;101691.36;;;12.91;40.37
54872;BME280;43914;57.680;11.982;2023-05-03T12:06:33;101693.16;;;13.05;39.56
54872;BME280;43914;57.680;11.982;2023-05-03T12:09:00;101688.61;;;13.15;39.07
54872;BME280;43914;57.680;11.982;2023-05-03T12:11:26;101699.25;;;13.26;38.67
54872;BME280;43914;57.680;11.982;2023-05-03T12:14:00;101696.66;;;13.33;38.65
54872;BME280;43914;57.680;11.982;2023-05-03T12:16:27;101697.60;;;13.44;38.13
54872;BME280;43914;57.680;11.982;2023-05-03T12:18:55;101707.65;;;13.50;37.54
54872;BME280;43914;57.680;11.982;2023-05-03T12:21:24;101702.23;;;13.49;36.93
54872;BME280;43914;57.680;11.982;2023-05-03T12:23:51;101703.98;;;13.52;37.08
54872;BME280;43914;57.680;11.982;2023-05-03T12:26:18;101701.04;;;13.64;37.93
54872;BME280;43914;57.680;11.982;2023-05-03T12:28:46;101703.14;;;13.87;38.30
54872;BME280;43914;57.680;11.982;2023-05-03T12:31:12;101709.27;;;14.07;37.35
54872;BME280;43914;57.680;11.982;2023-05-03T12:33:39;101700.02;;;14.14;36.59
54872;BME280;43914;57.680;11.982;2023-05-03T12:36:05;101708.23;;;14.26;36.47
54872;BME280;43914;57.680;11.982;2023-05-03T12:38:32;101711.58;;;14.36;36.00
54872;BME280;43914;57.680;11.982;2023-05-03T12:40:58;101712.55;;;14.46;35.48
54872;BME280;43914;57.680;11.982;2023-05-03T12:43:27;101713.94;;;14.48;35.10
54872;BME280;43914;57.680;11.982;2023-05-03T12:45:56;101713.39;;;14.62;35.68
54872;BME280;43914;57.680;11.982;2023-05-03T12:48:23;101722.02;;;14.83;35.16
54872;BME280;43914;57.680;11.982;2023-05-03T12:50:49;101718.86;;;14.90;34.43
54872;BME280;43914;57.680;11.982;2023-05-03T12:53:15;101716.71;;;15.01;34.30
54872;BME280;43914;57.680;11.982;2023-05-03T12:55:40;101713.76;;;15.12;34.34
54872;BME280;43914;57.680;11.982;2023-05-03T12:58:06;101712.46;;;15.27;34.53
54872;BME280;43914;57.680;11.982;2023-05-03T13:00:32;101710.19;;;15.51;34.20
54872;BME280;43914;57.680;11.982;2023-05-03T13:02:57;101710.89;;;15.70;33.59
54872;BME280;43914;57.680;11.982;2023-05-03T13:05:24;101715.25;;;15.92;33.41